Time;durP1;ratioP1;P1;durP2;ratioP2;P2;SDS_P1;SDS_P2;PMS_P1;PMS_P2;Temp;Humidity;BMP_temperature;BMP_pressure;BME280_temperature;BME280_humidity;BME280_pressure;Samples;Min_cycle;Max_cycle;Signal;HPM_P1;HPM_P2
2021/11/18 00:01:21;;;;;;;;;5.00;5.00;;;;;21.01;43.19;102417.84;5097185;27;45309;-44
2021/11/18 00:03:47;;;;;;;;;8.75;5.75;;;;;21.04;42.94;102414.25;5097252;27;45412;-44
2021/11/18 00:06:14;;;;;;;;;6.00;6.00;;;;;21.03;43.48;102416.94;5097523;27;45460;-50
2021/11/18 00:08:40;;;;;;;;;10.25;8.50;;;;;20.99;43.11;102419.69;5096896;27;46530;-44
2021/11/18 00:11:09;;;;;;;;;11.00;8.00;;;;;20.98;43.05;102417.97;5097152;27;45326;-45
2021/11/18 00:13:38;;;;;;;;;7.00;7.00;;;;;20.99;43.55;102427.59;5097160;27;45308;-43
2021/11/18 00:16:05;;;;;;;;;6.50;6.25;;;;;20.98;43.41;102420.59;5078958;27;45603;-45
2021/11/18 00:18:33;;;;;;;;;6.75;6.75;;;;;20.95;43.39;102427.72;5096787;27;46243;-45
2021/11/18 00:21:06;;;;;;;;;6.75;5.50;;;;;20.95;43.14;102422.44;5097114;27;45290;-45
2021/11/18 00:23:35;;;;;;;;;7.50;6.50;;;;;20.94;43.27;102416.31;5097326;27;45462;-44
2021/11/18 00:26:01;;;;;;;;;5.75;5.75;;;;;20.95;42.93;102428.59;5097105;27;45691;-45
2021/11/18 00:28:27;;;;;;;;;5.75;5.00;;;;;20.93;43.13;102427.78;5096830;27;45704;-43
2021/11/18 00:30:53;;;;;;;;;8.00;7.75;;;;;20.94;43.07;102426.84;5096927;27;45442;-44
2021/11/18 00:33:20;;;;;;;;;7.25;6.75;;;;;20.92;43.30;102418.13;5097104;27;45436;-45
2021/11/18 00:35:45;;;;;;;;;4.75;4.75;;;;;20.92;43.25;102418.13;5097479;27;45445;-44
2021/11/18 00:38:12;;;;;;;;;6.00;6.00;;;;;20.92;43.52;102415.50;5096747;27;46954;-44
2021/11/18 00:40:41;;;;;;;;;7.00;6.50;;;;;20.91;43.49;102400.59;5096888;27;45267;-45
2021/11/18 00:43:09;;;;;;;;;5.50;5.50;;;;;20.91;43.39;102399.75;5096836;27;45321;-45
2021/11/18 00:45:37;;;;;;;;;6.00;6.00;;;;;20.89;42.99;102394.50;5097045;27;45460;-44
2021/11/18 00:48:03;;;;;;;;;8.00;6.00;;;;;20.88;43.44;102395.44;5078308;27;47362;-45
2021/11/18 00:50:58;;;;;;;;;5.00;5.00;;;;;20.86;42.98;102381.44;5096564;27;45324;-46
2021/11/18 00:53:25;;;;;;;;;9.00;7.25;;;;;20.85;43.08;102387.63;5080043;27;45651;-44
2021/11/18 00:55:50;;;;;;;;;7.00;6.00;;;;;20.85;43.31;102385.00;5096846;27;45560;-48
2021/11/18 00:58:16;;;;;;;;;6.75;5.50;;;;;20.83;43.10;102381.53;5096707;27;46163;-43
2021/11/18 01:00:44;;;;;;;;;7.50;6.00;;;;;20.83;43.06;102386.81;5096502;27;45242;-45
2021/11/18 01:03:12;;;;;;;;;7.25;7.25;;;;;20.83;42.99;102390.31;5096771;27;45355;-44
2021/11/18 01:05:42;;;;;;;;;9.50;7.00;;;;;20.83;42.89;102392.06;5096567;27;45398;-47
2021/11/18 01:08:09;;;;;;;;;8.75;6.25;;;;;20.82;43.47;102390.34;5096387;27;46356;-44
2021/11/18 01:10:39;;;;;;;;;7.00;5.50;;;;;20.81;43.02;102393.91;5098750;27;45889;-44
2021/11/18 01:13:06;;;;;;;;;8.00;8.00;;;;;20.81;42.93;102393.91;5100182;27;45245;-44
2021/11/18 01:15:34;;;;;;;;;10.25;6.75;;;;;20.81;43.43;102399.16;5100175;27;45386;-44
2021/11/18 01:18:00;;;;;;;;;6.75;6.00;;;;;20.80;43.26;102402.72;5099565;27;46672;-44
2021/11/18 01:20:26;;;;;;;;;8.00;8.00;;;;;20.78;43.21;102408.03;5099743;27;45353;-43
2021/11/18 01:22:54;;;;;;;;;7.50;5.75;;;;;20.79;43.26;102414.16;5099928;27;45439;-43
2021/11/18 01:25:20;;;;;;;;;9.75;7.25;;;;;20.75;43.37;102409.91;5100308;27;45314;-44
2021/11/18 01:27:46;;;;;;;;;5.50;5.50;;;;;20.77;43.12;102416.00;5081735;27;46548;-44
2021/11/18 01:30:18;;;;;;;;;5.50;5.50;;;;;20.76;42.67;102414.28;5099554;27;45319;-46
2021/11/18 01:32:43;;;;;;;;;9.50;6.75;;;;;20.75;43.00;102415.19;5099765;27;45357;-45
2021/11/18 01:35:09;;;;;;;;;7.50;6.00;;;;;20.73;43.18;102406.41;5099829;27;45462;-44
2021/11/18 01:37:35;;;;;;;;;5.75;5.25;;;;;20.74;43.22;102414.31;5099315;27;45378;-44
2021/11/18 01:40:00;;;;;;;;;8.25;6.00;;;;;20.73;42.86;102401.16;5099436;27;45338;-45
2021/11/18 01:42:26;;;;;;;;;8.75;6.50;;;;;20.74;42.99;102410.78;5099510;27;45279;-44
2021/11/18 01:44:53;;;;;;;;;7.00;7.00;;;;;20.73;42.73;102416.97;5099869;27;45545;-46
2021/11/18 01:47:19;;;;;;;;;6.75;6.25;;;;;20.73;43.20;102414.31;5099472;27;46538;-44
2021/11/18 01:49:48;;;;;;;;;7.00;6.25;;;;;20.72;42.82;102420.50;5099341;27;45367;-44
2021/11/18 01:52:18;;;;;;;;;6.75;6.50;;;;;20.69;42.85;102421.47;5099451;27;45236;-44
2021/11/18 01:54:44;;;;;;;;;8.25;6.00;;;;;20.70;42.70;102426.69;5099552;27;45396;-44
2021/11/18 01:57:14;;;;;;;;;7.25;6.25;;;;;20.69;42.73;102427.59;5099153;27;46381;-44
2021/11/18 01:59:44;;;;;;;;;6.00;6.00;;;;;20.66;43.00;102429.47;5099054;27;45766;-44
2021/11/18 02:02:10;;;;;;;;;6.50;6.50;;;;;20.67;42.94;102434.66;5099294;27;45418;-45
2021/11/18 02:04:52;;;;;;;;;6.75;6.75;;;;;20.68;43.02;102430.28;5099274;27;45377;-45
2021/11/18 02:07:18;;;;;;;;;5.75;5.25;;;;;20.67;42.98;102426.75;5099200;27;45464;-44
2021/11/18 02:09:47;;;;;;;;;5.00;5.00;;;;;20.66;43.02;102435.59;5099075;27;45765;-44
2021/11/18 02:12:26;;;;;;;;;5.50;5.25;;;;;20.62;42.81;102428.69;5099279;27;45450;-48
2021/11/18 02:14:53;;;;;;;;;7.75;6.00;;;;;20.65;43.09;102425.97;5099244;27;45238;-44
2021/11/18 02:17:22;;;;;;;;;5.25;5.25;;;;;20.65;42.80;102425.97;5098901;27;46390;-44
2021/11/18 02:20:00;;;;;;;;;7.50;6.00;;;;;20.64;42.82;102432.16;5098783;27;45891;-43
2021/11/18 02:22:27;;;;;;;;;6.75;5.00;;;;;20.62;42.60;102425.19;5098849;27;45366;-46
2021/11/18 02:24:57;;;;;;;;;7.00;6.75;;;;;20.64;42.96;102431.28;5099459;27;45200;-46
2021/11/18 02:27:30;;;;;;;;;7.00;5.00;;;;;20.61;42.79;102426.97;5098859;27;47084;-45
2021/11/18 02:29:57;;;;;;;;;7.25;6.00;;;;;20.63;43.08;102433.06;5080753;27;45426;-45
2021/11/18 02:32:26;;;;;;;;;6.50;5.00;;;;;20.58;42.80;102427.06;5099272;27;45420;-45
2021/11/18 02:34:55;;;;;;;;;7.00;7.00;;;;;20.58;43.02;102419.16;5099178;27;45238;-45
2021/11/18 02:37:22;;;;;;;;;8.00;7.00;;;;;20.61;42.67;102428.75;5098766;27;45397;-43
2021/11/18 02:39:47;;;;;;;;;8.75;6.50;;;;;20.59;42.68;102425.28;5098575;27;45361;-44
2021/11/18 02:42:14;;;;;;;;;7.50;6.50;;;;;20.59;42.65;102431.41;5098726;27;45293;-43
2021/11/18 02:44:40;;;;;;;;;6.50;5.00;;;;;20.57;43.16;102433.22;5098776;27;45532;-45
2021/11/18 02:47:12;;;;;;;;;6.25;5.25;;;;;20.59;42.61;102431.41;5098274;27;46462;-45
2021/11/18 02:49:46;;;;;;;;;5.00;5.00;;;;;20.59;42.66;102430.56;5080045;27;45948;-49
2021/11/18 02:52:15;;;;;;;;;5.50;4.50;;;;;20.58;42.77;102429.69;5080239;27;45502;-44
2021/11/18 02:54:41;;;;;;;;;6.00;6.00;;;;;20.58;43.02;102424.41;5098522;27;45350;-45
2021/11/18 02:57:07;;;;;;;;;9.00;5.00;;;;;20.57;42.84;102427.13;5098103;27;45353;-47
2021/11/18 02:59:36;;;;;;;;;6.25;5.00;;;;;20.57;43.13;102438.50;5079794;27;45335;-45
2021/11/18 03:02:04;;;;;;;;;6.25;6.00;;;;;20.55;42.95;102432.44;5079901;27;45424;-45
2021/11/18 03:04:30;;;;;;;;;7.25;6.00;;;;;20.55;42.71;102450.88;5079955;27;45612;-44
2021/11/18 03:06:55;;;;;;;;;7.25;5.00;;;;;20.55;42.82;102441.19;5098047;27;46262;-45
2021/11/18 03:09:21;;;;;;;;;6.00;6.00;;;;;20.55;42.62;102438.56;5098313;27;45215;-44
2021/11/18 03:11:46;;;;;;;;;4.25;4.25;;;;;20.55;42.83;102440.34;5098153;27;45263;-46
2021/11/18 03:14:12;;;;;;;;;7.50;6.00;;;;;20.54;42.74;102442.09;5098270;27;45307;-46
2021/11/18 03:16:37;;;;;;;;;6.75;5.75;;;;;20.54;43.02;102451.78;5079286;27;48375;-45
2021/11/18 03:19:03;;;;;;;;;6.75;5.50;;;;;20.52;42.83;102450.97;5097809;27;45388;-44
2021/11/18 03:21:29;;;;;;;;;4.00;4.00;;;;;20.54;42.80;102459.69;5097862;27;45454;-43
2021/11/18 03:23:56;;;;;;;;;6.00;6.00;;;;;20.53;42.85;102457.94;5098459;27;45832;-45
2021/11/18 03:26:25;;;;;;;;;5.50;5.50;;;;;20.49;42.66;102449.28;5098019;27;46536;-44
2021/11/18 03:28:51;;;;;;;;;4.50;4.00;;;;;20.53;42.97;102455.31;5097569;27;45647;-46
2021/11/18 03:31:17;;;;;;;;;6.50;5.00;;;;;20.51;42.72;102443.97;5097936;27;45169;-46
2021/11/18 03:33:48;;;;;;;;;5.50;5.00;;;;;20.49;42.75;102449.28;5097263;27;45245;-46
2021/11/18 03:36:14;;;;;;;;;6.00;6.00;;;;;20.50;42.39;102448.38;5097546;27;45429;-47
2021/11/18 03:38:41;;;;;;;;;5.00;5.00;;;;;20.51;42.76;102460.63;5097487;27;45413;-46
2021/11/18 03:41:08;;;;;;;;;6.00;6.00;;;;;20.51;42.54;102459.75;5097713;27;45300;-46
2021/11/18 03:43:40;;;;;;;;;5.25;5.00;;;;;20.47;43.01;102452.84;5097746;27;45284;-44
2021/11/18 03:46:05;;;;;;;;;9.00;5.00;;;;;20.50;42.71;102460.66;5097422;27;45622;-46
2021/11/18 03:48:33;;;;;;;;;7.00;7.00;;;;;20.49;42.63;102459.81;5097454;27;45218;-46
2021/11/18 03:51:00;;;;;;;;;5.50;5.50;;;;;20.49;42.46;102451.91;5097410;27;45307;-45
2021/11/18 03:53:27;;;;;;;;;5.50;5.50;;;;;20.49;42.44;102454.56;5097933;27;45257;-47
2021/11/18 03:55:52;;;;;;;;;4.75;4.50;;;;;20.47;42.47;102455.47;5097348;27;45499;-46
2021/11/18 03:58:18;;;;;;;;;8.00;7.00;;;;;20.48;42.49;102460.72;5097298;27;45328;-46
2021/11/18 04:00:44;;;;;;;;;5.50;5.00;;;;;20.48;42.46;102465.13;5097522;27;45628;-46
2021/11/18 04:03:11;;;;;;;;;5.25;4.00;;;;;20.48;42.41;102470.38;5097394;27;45385;-44
2021/11/18 04:05:38;;;;;;;;;4.75;4.75;;;;;20.46;42.89;102467.81;5097077;27;45442;-46
2021/11/18 04:08:04;;;;;;;;;6.75;5.50;;;;;20.46;42.57;102464.28;5097226;27;45308;-44
2021/11/18 04:10:33;;;;;;;;;5.50;5.50;;;;;20.46;42.67;102466.91;5097360;27;45314;-44
2021/11/18 04:13:00;;;;;;;;;5.00;5.00;;;;;20.45;42.51;102467.84;5097531;27;45322;-46
2021/11/18 04:15:27;;;;;;;;;7.00;5.25;;;;;20.45;42.40;102468.72;5097308;27;45425;-45
2021/11/18 04:17:53;;;;;;;;;6.00;6.00;;;;;20.42;42.74;102470.56;5097064;27;45894;-43
2021/11/18 04:20:19;;;;;;;;;8.25;6.25;;;;;20.44;42.82;102479.31;5097203;27;45421;-44
2021/11/18 04:22:47;;;;;;;;;6.50;5.50;;;;;20.45;42.62;102488.94;5097280;27;45528;-44
2021/11/18 04:25:15;;;;;;;;;9.50;5.50;;;;;20.42;42.51;102481.09;5096830;27;45370;-43
2021/11/18 04:27:42;;;;;;;;;6.00;5.00;;;;;20.43;42.52;102485.47;5096982;27;45357;-43
2021/11/18 04:30:11;;;;;;;;;7.00;5.00;;;;;20.43;42.62;102496.00;5096950;27;45325;-42
2021/11/18 04:32:36;;;;;;;;;6.00;4.25;;;;;20.43;42.65;102496.84;5097041;27;45471;-44
2021/11/18 04:35:02;;;;;;;;;5.00;5.00;;;;;20.42;42.83;102492.50;5096858;27;46344;-45
2021/11/18 04:37:27;;;;;;;;;4.00;3.75;;;;;20.38;42.91;102485.59;5096969;27;45397;-45
2021/11/18 04:39:53;;;;;;;;;8.00;6.00;;;;;20.42;42.84;102494.28;5096906;27;45386;-44
2021/11/18 04:42:20;;;;;;;;;5.00;4.25;;;;;20.43;42.62;102502.13;5097133;27;45557;-44
2021/11/18 04:44:46;;;;;;;;;5.00;5.00;;;;;20.41;42.68;102496.03;5099511;27;45661;-44
2021/11/18 04:47:13;;;;;;;;;4.75;4.75;;;;;20.41;42.55;102505.72;5081860;27;45965;-44
2021/11/18 04:49:44;;;;;;;;;10.25;5.50;;;;;20.41;42.71;102508.34;5100499;27;45548;-46
2021/11/18 04:52:11;;;;;;;;;4.50;4.50;;;;;20.42;42.55;102512.72;5082159;27;45478;-44
2021/11/18 04:54:37;;;;;;;;;5.75;5.75;;;;;20.36;42.44;102506.69;5100081;27;48627;-46
2021/11/18 04:57:04;;;;;;;;;4.00;4.00;;;;;20.41;42.75;102521.50;5100270;27;45318;-46
2021/11/18 04:59:30;;;;;;;;;5.00;5.00;;;;;20.39;42.74;102521.56;5100581;27;45381;-46
2021/11/18 05:01:55;;;;;;;;;7.00;7.00;;;;;20.41;42.37;102526.78;5100351;27;45536;-47
2021/11/18 05:04:21;;;;;;;;;6.00;5.00;;;;;20.41;42.24;102537.31;5100112;27;46026;-45
2021/11/18 05:06:47;;;;;;;;;4.00;3.50;;;;;20.38;42.51;102528.59;5099884;27;45323;-50
2021/11/18 05:09:13;;;;;;;;;6.00;6.00;;;;;20.37;42.37;102513.69;5100203;27;45297;-47
2021/11/18 05:11:40;;;;;;;;;6.50;5.50;;;;;20.39;42.81;102521.56;5100120;27;45558;-45
2021/11/18 05:14:06;;;;;;;;;4.75;4.00;;;;;20.42;42.41;102521.47;5099822;27;45457;-46
2021/11/18 05:16:32;;;;;;;;;6.00;5.00;;;;;20.43;42.63;102515.28;5081871;27;45346;-45
2021/11/18 05:18:58;;;;;;;;;4.25;4.25;;;;;20.44;42.49;102513.53;5100161;27;45303;-46
2021/11/18 05:21:26;;;;;;;;;5.00;5.00;;;;;20.49;42.98;102520.41;5099936;27;45483;-44
2021/11/18 05:23:52;;;;;;;;;7.50;5.50;;;;;20.52;42.97;102517.66;5099755;27;46596;-48
2021/11/18 05:26:20;;;;;;;;;7.25;5.50;;;;;20.58;42.71;102526.31;5099591;27;45264;-44
2021/11/18 05:28:46;;;;;;;;;4.00;4.00;;;;;20.61;42.91;102521.81;5099818;27;45287;-43
2021/11/18 05:31:15;;;;;;;;;5.00;5.00;;;;;20.67;42.37;102523.41;5099918;27;45378;-43
2021/11/18 05:33:41;;;;;;;;;5.00;4.75;;;;;20.72;42.65;102531.16;5099601;27;45549;-43
2021/11/18 05:36:07;;;;;;;;;5.50;5.00;;;;;20.77;42.40;102524.03;5099549;27;45394;-44
2021/11/18 05:38:33;;;;;;;;;5.50;5.00;;;;;20.79;42.62;102525.72;5099954;27;45422;-45
2021/11/18 05:40:58;;;;;;;;;4.00;4.00;;;;;20.84;42.20;102528.22;5100261;27;45359;-46
2021/11/18 05:43:27;;;;;;;;;6.00;5.00;;;;;20.86;42.34;102523.75;5099428;27;46151;-48
2021/11/18 05:45:52;;;;;;;;;4.00;4.00;;;;;20.90;42.30;102530.66;5099556;27;45227;-46
2021/11/18 05:48:19;;;;;;;;;6.25;6.25;;;;;20.94;42.54;102537.56;5099554;27;45847;-47
2021/11/18 05:50:54;;;;;;;;;9.75;6.00;;;;;20.97;42.34;102533.97;5099588;27;45390;-50
2021/11/18 05:53:25;;;;;;;;;7.75;5.75;;;;;21.00;41.97;102539.16;5099285;27;45684;-48
2021/11/18 05:55:51;;;;;;;;;5.25;5.25;;;;;21.03;41.98;102546.09;5098698;27;45914;-46
2021/11/18 05:58:18;;;;;;;;;9.25;6.25;;;;;21.03;42.16;102543.47;5099264;27;45379;-47
2021/11/18 06:00:43;;;;;;;;;7.25;6.00;;;;;21.06;41.68;102553.91;5081015;27;45620;-49
2021/11/18 06:03:09;;;;;;;;;5.50;4.50;;;;;21.06;41.78;102551.28;5098995;27;47152;-47
2021/11/18 06:05:34;;;;;;;;;7.75;5.25;;;;;21.07;41.86;102550.38;5080529;27;45980;-45
2021/11/18 06:08:00;;;;;;;;;7.00;6.25;;;;;21.04;41.87;102542.56;5099640;27;45503;-46
2021/11/18 06:10:29;;;;;;;;;7.50;6.25;;;;;21.09;41.66;102552.03;5099235;27;45381;-45
2021/11/18 06:12:55;;;;;;;;;7.00;6.00;;;;;21.09;41.80;102552.03;5098886;27;46564;-44
2021/11/18 06:15:21;;;;;;;;;11.75;8.25;;;;;21.10;41.71;102551.13;5080658;27;45772;-43
2021/11/18 06:17:46;;;;;;;;;6.75;6.00;;;;;21.10;41.41;102548.50;5099015;27;45327;-45
2021/11/18 06:20:14;;;;;;;;;10.25;9.25;;;;;21.08;41.56;102539.78;5099255;27;45540;-44
2021/11/18 06:22:41;;;;;;;;;8.25;6.50;;;;;21.09;41.73;102551.19;5098784;27;46643;-45
2021/11/18 06:25:08;;;;;;;;;11.00;7.25;;;;;21.09;41.61;102554.69;5098538;27;45901;-44
2021/11/18 06:27:40;;;;;;;;;10.50;9.00;;;;;21.09;41.38;102552.03;5098940;27;45332;-44
2021/11/18 06:30:10;;;;;;;;;7.25;6.50;;;;;21.11;41.71;102557.28;5098832;27;45798;-46
2021/11/18 06:32:35;;;;;;;;;5.25;4.25;;;;;21.11;41.52;102559.94;5098857;27;45429;-45
2021/11/18 06:35:01;;;;;;;;;8.00;7.50;;;;;21.10;41.32;102555.56;5098790;27;45238;-48
2021/11/18 06:37:26;;;;;;;;;7.75;6.00;;;;;21.12;41.34;102567.78;5098606;27;45279;-46
2021/11/18 06:39:52;;;;;;;;;7.75;6.75;;;;;21.11;41.77;102568.69;5080581;27;45244;-47
2021/11/18 06:42:17;;;;;;;;;8.00;6.00;;;;;21.12;41.71;102570.41;5098342;27;46398;-48
2021/11/18 06:44:43;;;;;;;;;8.75;6.00;;;;;21.12;41.54;102572.16;5098403;27;45398;-46
2021/11/18 06:47:09;;;;;;;;;7.75;5.75;;;;;21.12;41.41;102572.16;5098563;27;45343;-48
2021/11/18 06:49:35;;;;;;;;;5.25;5.25;;;;;21.12;41.70;102574.81;5098964;27;45271;-43
2021/11/18 06:52:04;;;;;;;;;7.75;5.75;;;;;21.09;41.65;102570.50;5098125;27;45372;-46
2021/11/18 06:54:31;;;;;;;;;6.75;5.50;;;;;21.10;41.21;102566.09;5098162;27;45365;-46
2021/11/18 06:56:56;;;;;;;;;6.50;6.50;;;;;21.12;41.57;102574.81;5098420;27;45321;-45
2021/11/18 06:59:22;;;;;;;;;6.00;4.75;;;;;21.12;41.48;102580.09;5098537;27;45385;-44
2021/11/18 07:01:49;;;;;;;;;7.75;6.25;;;;;21.07;41.46;102572.31;5098266;27;45449;-46
2021/11/18 07:04:14;;;;;;;;;5.75;5.75;;;;;21.11;41.45;102575.75;5097490;27;45768;-45
2021/11/18 07:06:40;;;;;;;;;6.25;6.00;;;;;21.10;41.62;102582.78;5097226;27;45362;-49
2021/11/18 07:09:10;;;;;;;;;6.00;6.00;;;;;21.10;41.39;102581.94;5098249;27;45352;-47
2021/11/18 07:11:36;;;;;;;;;8.25;7.00;;;;;21.09;41.38;102583.69;5098234;27;46307;-46
2021/11/18 07:14:02;;;;;;;;;7.00;7.00;;;;;21.08;41.68;102587.22;5097934;27;45753;-45
2021/11/18 07:16:29;;;;;;;;;7.25;6.00;;;;;21.06;41.49;102588.19;5098070;27;45433;-46
2021/11/18 07:18:55;;;;;;;;;7.25;7.00;;;;;21.07;41.06;102593.41;5098131;27;45453;-45
2021/11/18 07:21:22;;;;;;;;;4.25;4.25;;;;;21.05;41.67;102589.09;5097469;27;45654;-46
2021/11/18 07:23:50;;;;;;;;;6.50;6.00;;;;;21.03;41.62;102590.91;5097813;27;45240;-46
2021/11/18 07:26:16;;;;;;;;;8.75;6.50;;;;;21.01;41.90;102583.91;5097793;27;45332;-47
2021/11/18 07:28:42;;;;;;;;;6.50;5.00;;;;;21.03;42.03;102590.91;5098107;27;45350;-46
2021/11/18 07:31:09;;;;;;;;;6.25;6.25;;;;;21.01;42.07;102589.19;5079619;27;47548;-48
2021/11/18 07:33:35;;;;;;;;;7.00;6.00;;;;;21.01;42.03;102593.59;5097902;27;45886;-46
2021/11/18 07:36:01;;;;;;;;;6.00;5.75;;;;;20.96;41.75;102580.56;5097668;27;45390;-45
2021/11/18 07:38:30;;;;;;;;;7.50;7.50;;;;;20.96;42.18;102593.75;5097696;27;45561;-47
2021/11/18 07:40:56;;;;;;;;;6.50;5.50;;;;;20.96;41.75;102583.19;5097333;27;47040;-46
2021/11/18 07:43:25;;;;;;;;;5.25;5.25;;;;;20.96;42.35;102588.47;5097524;27;45357;-45
2021/11/18 07:45:53;;;;;;;;;7.00;5.00;;;;;20.95;42.13;102586.72;5097511;27;45343;-45
2021/11/18 07:48:19;;;;;;;;;7.00;7.00;;;;;20.94;42.27;102585.00;5097543;27;45165;-46
2021/11/18 07:50:45;;;;;;;;;5.00;5.00;;;;;20.93;41.97;102579.78;5097372;27;45442;-45
2021/11/18 07:53:11;;;;;;;;;7.00;5.75;;;;;20.92;41.82;102592.09;5078951;27;45672;-46
2021/11/18 07:55:36;;;;;;;;;6.75;6.50;;;;;20.92;42.24;102581.53;5097746;27;45235;-45
2021/11/18 07:58:02;;;;;;;;;6.50;5.25;;;;;20.97;42.01;102584.03;5097447;27;45561;-55
2021/11/18 08:00:28;;;;;;;;;6.25;6.25;;;;;20.97;42.56;102584.03;5097080;27;46530;-56
2021/11/18 08:02:54;;;;;;;;;9.25;7.75;;;;;20.97;42.22;102586.69;5097038;27;45386;-56
2021/11/18 08:05:20;;;;;;;;;6.00;6.00;;;;;20.96;41.91;102596.38;5097014;27;45576;-54
2021/11/18 08:07:45;;;;;;;;;6.00;6.00;;;;;20.93;41.98;102590.34;5097527;27;45463;-57
2021/11/18 08:10:13;;;;;;;;;8.75;6.75;;;;;20.93;41.82;102604.34;5096807;27;45399;-55
2021/11/18 08:12:39;;;;;;;;;8.00;8.00;;;;;20.93;41.95;102619.31;5097292;27;45375;-57
2021/11/18 08:15:08;;;;;;;;;10.00;6.00;;;;;20.89;41.72;102615.03;5097123;27;45199;-55
2021/11/18 08:17:34;;;;;;;;;6.25;6.25;;;;;20.90;42.15;102612.34;5089299;27;46405;-52
2021/11/18 08:20:00;;;;;;;;;9.00;8.00;;;;;20.89;41.56;102609.78;5094699;27;45953;-55
2021/11/18 08:22:26;;;;;;;;;6.50;6.50;;;;;20.88;42.18;102608.91;5096277;27;45423;-47
2021/11/18 08:24:52;;;;;;;;;7.00;7.00;;;;;20.88;42.11;102611.56;5095009;27;45489;-54
2021/11/18 08:27:18;;;;;;;;;7.00;7.00;;;;;20.88;41.90;102621.22;5088005;27;45440;-58
2021/11/18 08:29:44;;;;;;;;;10.75;8.00;;;;;20.88;41.90;102621.22;5081816;27;46172;-49
2021/11/18 08:32:11;;;;;;;;;3.25;3.25;;;;;20.88;42.33;102616.81;5081766;27;45332;-58
2021/11/18 08:34:37;;;;;;;;;10.00;9.00;;;;;20.89;42.00;102618.53;5057764;28;45730;-57
2021/11/18 08:37:03;;;;;;;;;8.75;7.50;;;;;20.89;42.00;102613.25;5057582;28;45625;-48
2021/11/18 08:39:30;;;;;;;;;9.25;7.00;;;;;20.84;41.99;102617.81;5075713;28;45675;-50
2021/11/18 08:41:59;;;;;;;;;8.75;7.00;;;;;20.85;41.78;102611.63;5074651;28;45455;-45
2021/11/18 08:44:26;;;;;;;;;8.25;7.00;;;;;20.87;42.23;102625.63;5075192;28;45402;-53
2021/11/18 08:46:52;;;;;;;;;9.50;7.75;;;;;20.84;42.15;102618.66;5075819;28;45504;-53
2021/11/18 08:49:19;;;;;;;;;9.75;8.50;;;;;20.90;42.70;102628.16;5075636;28;46710;-51
2021/11/18 08:51:44;;;;;;;;;13.00;9.50;;;;;20.90;42.53;102625.53;5075823;28;45356;-55
2021/11/18 08:54:20;;;;;;;;;8.50;7.00;;;;;20.92;42.57;102629.00;5075329;27;45570;-56
2021/11/18 08:56:51;;;;;;;;;7.00;7.00;;;;;20.93;42.43;102619.31;5057527;28;45713;-52
2021/11/18 08:59:18;;;;;;;;;7.00;6.75;;;;;20.93;42.27;102625.44;5092702;27;46711;-51
2021/11/18 09:01:48;;;;;;;;;7.25;7.25;;;;;20.93;42.51;102636.00;5095767;27;45832;-53
2021/11/18 09:04:17;;;;;;;;;8.50;8.50;;;;;20.95;42.73;102633.28;5096195;27;45265;-54
2021/11/18 09:06:43;;;;;;;;;8.00;8.00;;;;;20.94;42.44;102624.53;5096277;27;45528;-58
2021/11/18 09:09:10;;;;;;;;;10.00;7.25;;;;;20.94;42.54;102627.19;5095967;27;45678;-50
2021/11/18 09:11:37;;;;;;;;;7.00;7.00;;;;;20.93;42.80;102628.09;5088339;27;45794;-55
2021/11/18 09:14:03;;;;;;;;;8.00;6.25;;;;;20.89;42.46;102623.78;5068113;27;45568;-56
2021/11/18 09:16:32;;;;;;;;;9.50;8.50;;;;;20.88;42.62;102630.00;5087131;27;45394;-54
2021/11/18 09:18:58;;;;;;;;;8.00;7.50;;;;;20.87;42.34;102636.19;5089066;27;45553;-58
2021/11/18 09:21:26;;;;;;;;;11.50;9.25;;;;;20.87;42.44;102641.44;5079050;27;45500;-53
2021/11/18 09:24:14;;;;;;;;;10.50;8.50;;;;;20.85;42.81;102636.19;5074545;28;45414;-57
2021/11/18 09:26:42;;;;;;;;;8.25;6.25;;;;;20.84;42.69;102638.91;5076205;27;45422;-59
2021/11/18 09:29:08;;;;;;;;;9.00;7.50;;;;;20.87;42.64;102635.28;5067754;27;48121;-51
2021/11/18 09:31:34;;;;;;;;;7.50;6.25;;;;;20.87;42.51;102636.19;5084638;27;45968;-58
2021/11/18 09:34:01;;;;;;;;;9.50;9.50;;;;;20.85;42.17;102638.84;5080460;27;45395;-55
2021/11/18 09:36:28;;;;;;;;;7.50;7.50;;;;;20.86;42.45;102645.00;5099518;27;45373;-56
2021/11/18 09:38:57;;;;;;;;;11.00;8.00;;;;;20.81;42.36;102647.75;5099007;27;46385;-54
2021/11/18 09:41:34;;;;;;;;;8.25;8.25;;;;;20.86;42.14;102650.25;5099075;27;45272;-56
2021/11/18 09:44:08;;;;;;;;;9.25;7.25;;;;;20.85;42.29;102644.09;5099154;27;45375;-51
2021/11/18 09:46:52;;;;;;;;;10.00;9.00;;;;;20.82;42.62;102632.78;5099488;27;45290;-52
2021/11/18 09:49:29;;;;;;;;;10.50;7.00;;;;;20.84;42.19;102641.53;5098664;27;45574;-53
2021/11/18 09:51:57;;;;;;;;;8.00;8.00;;;;;20.81;42.50;102636.34;5099137;27;45994;-58
2021/11/18 09:54:53;;;;;;;;;10.25;8.25;;;;;20.82;42.20;102648.59;5098879;27;45360;-55
2021/11/18 09:57:48;;;;;;;;;10.00;8.00;;;;;20.83;42.46;102645.94;5098968;27;45260;-50
2021/11/18 10:00:25;;;;;;;;;12.00;8.00;;;;;20.83;42.39;102651.22;5099266;27;45539;-55
2021/11/18 10:03:25;;;;;;;;;10.25;8.50;;;;;20.78;42.59;102647.84;5098752;27;45923;-59
2021/11/18 10:06:08;;;;;;;;;12.25;9.25;;;;;20.82;42.00;102648.59;5098636;27;45435;-54
2021/11/18 10:08:41;;;;;;;;;12.25;8.75;;;;;20.80;41.84;102646.03;5099140;27;45452;-47
2021/11/18 10:11:21;;;;;;;;;10.25;8.00;;;;;20.80;41.96;102656.56;5098509;27;47139;-45
2021/11/18 10:14:06;;;;;;;;;12.25;10.75;;;;;20.79;41.91;102651.31;5098378;27;45363;-44
2021/11/18 10:16:56;;;;;;;;;9.75;7.75;;;;;20.77;42.42;102656.63;5098927;27;45412;-45
2021/11/18 10:19:34;;;;;;;;;8.50;8.50;;;;;20.78;42.06;102663.66;5099003;27;45264;-51
2021/11/18 10:22:00;;;;;;;;;11.00;9.75;;;;;20.73;42.31;102662.00;5098424;27;46405;-55
2021/11/18 10:24:28;;;;;;;;;10.50;9.00;;;;;20.75;42.13;102666.34;5098016;27;45421;-56
2021/11/18 10:27:09;;;;;;;;;10.50;8.50;;;;;20.77;42.24;102668.97;5098582;27;45349;-49
2021/11/18 10:29:37;;;;;;;;;13.25;10.00;;;;;20.76;41.70;102670.72;5098750;27;45344;-48
2021/11/18 10:32:09;;;;;;;;;10.75;9.50;;;;;20.76;41.97;102669.88;5098283;27;46592;-44
2021/11/18 10:34:57;;;;;;;;;9.75;9.00;;;;;20.69;42.03;102659.44;5098192;27;45495;-47
2021/11/18 10:37:31;;;;;;;;;9.50;9.50;;;;;20.72;42.24;102663.78;5098259;27;45476;-44
2021/11/18 10:40:30;;;;;;;;;10.75;9.00;;;;;20.72;42.01;102669.06;5095707;27;45533;-47
2021/11/18 10:43:13;;;;;;;;;13.00;10.75;;;;;20.69;41.90;102658.59;5035687;27;45597;-47
2021/11/18 10:46:03;;;;;;;;;9.00;9.00;;;;;20.71;41.91;102675.22;5092389;27;45344;-48
2021/11/18 10:48:36;;;;;;;;;9.75;9.50;;;;;20.70;42.00;102674.34;5077458;28;45492;-49
2021/11/18 10:51:43;;;;;;;;;10.25;9.00;;;;;20.69;42.16;102675.25;5078112;28;45239;-48
2021/11/18 10:54:11;;;;;;;;;13.50;11.50;;;;;20.69;42.08;102674.41;5061615;27;46465;-50
2021/11/18 10:56:39;;;;;;;;;11.75;11.00;;;;;20.69;41.76;102674.41;5077698;28;45744;-47
2021/11/18 10:59:16;;;;;;;;;7.50;7.00;;;;;20.67;42.05;102671.78;5077787;28;45313;-44
2021/11/18 11:01:46;;;;;;;;;11.00;8.50;;;;;20.65;41.86;102667.47;5059891;28;45321;-44
2021/11/18 11:04:33;;;;;;;;;9.75;8.50;;;;;20.65;42.28;102668.34;5077705;28;45672;-49
2021/11/18 11:06:59;;;;;;;;;11.00;9.00;;;;;20.64;41.91;102663.09;5077439;27;45846;-46
2021/11/18 11:09:35;;;;;;;;;9.75;8.25;;;;;20.64;41.96;102677.16;5077721;28;45261;-47
2021/11/18 11:12:07;;;;;;;;;13.75;9.00;;;;;20.63;41.91;102670.16;5077776;28;45392;-46
2021/11/18 11:15:02;;;;;;;;;11.50;10.75;;;;;20.63;42.24;102670.16;5077309;27;45581;-51
2021/11/18 11:18:01;;;;;;;;;10.75;10.75;;;;;20.62;42.06;102668.44;5058947;28;45411;-46
2021/11/18 11:21:05;;;;;;;;;10.50;7.75;;;;;20.61;42.00;102660.59;5092051;27;45521;-47
2021/11/18 11:23:52;;;;;;;;;7.75;7.75;;;;;20.60;42.25;102654.44;5056189;27;45362;-49
2021/11/18 11:26:40;;;;;;;;;10.25;8.00;;;;;20.60;41.86;102661.47;5095402;27;45430;-50
2021/11/18 11:29:23;;;;;;;;;7.50;7.50;;;;;20.60;42.31;102654.44;5089650;27;45914;-50
2021/11/18 11:31:54;;;;;;;;;11.25;8.00;;;;;20.57;41.96;102654.50;5080302;27;45373;-48
2021/11/18 11:34:51;;;;;;;;;11.25;9.00;;;;;20.60;42.49;102649.16;5088439;27;45498;-47